sensor_id;sensor_type;location;lat;lon;timestamp;temperature;humidity
23991;DHT22;12205;50.600;4.608;2022-09-01T00:01:47;18.60;99.90
23991;DHT22;12205;50.600;4.608;2022-09-01T00:04:19;18.60;99.90
23991;DHT22;12205;50.600;4.608;2022-09-01T00:06:51;18.50;99.90
23991;DHT22;12205;50.600;4.608;2022-09-01T00:09:21;18.50;99.90
23991;DHT22;12205;50.600;4.608;2022-09-01T00:11:51;18.50;99.90
23991;DHT22;12205;50.600;4.608;2022-09-01T00:14:22;18.50;99.90
23991;DHT22;12205;50.600;4.608;2022-09-01T00:16:52;18.50;99.90
23991;DHT22;12205;50.600;4.608;2022-09-01T00:19:19;18.40;99.90
23991;DHT22;12205;50.600;4.608;2022-09-01T00:21:47;18.40;99.90
23991;DHT22;12205;50.600;4.608;2022-09-01T00:24:16;18.40;99.90
23991;DHT22;12205;50.600;4.608;2022-09-01T00:26:45;18.30;99.90
23991;DHT22;12205;50.600;4.608;2022-09-01T00:29:13;18.30;99.90
23991;DHT22;12205;50.600;4.608;2022-09-01T00:31:41;18.30;99.90
23991;DHT22;12205;50.600;4.608;2022-09-01T00:34:10;18.30;99.90
23991;DHT22;12205;50.600;4.608;2022-09-01T00:36:37;18.20;99.90
23991;DHT22;12205;50.600;4.608;2022-09-01T00:39:06;18.20;99.90
23991;DHT22;12205;50.600;4.608;2022-09-01T00:41:36;18.30;99.90
23991;DHT22;12205;50.600;4.608;2022-09-01T00:44:10;18.30;99.90
23991;DHT22;12205;50.600;4.608;2022-09-01T00:46:41;18.30;99.90
23991;DHT22;12205;50.600;4.608;2022-09-01T00:49:13;18.30;99.90
23991;DHT22;12205;50.600;4.608;2022-09-01T00:51:47;18.30;99.90
23991;DHT22;12205;50.600;4.608;2022-09-01T00:54:20;18.30;99.90
23991;DHT22;12205;50.600;4.608;2022-09-01T00:56:49;18.30;99.90
23991;DHT22;12205;50.600;4.608;2022-09-01T00:59:18;18.30;99.90
23991;DHT22;12205;50.600;4.608;2022-09-01T01:01:47;18.30;99.90
23991;DHT22;12205;50.600;4.608;2022-09-01T01:04:16;18.40;99.90
23991;DHT22;12205;50.600;4.608;2022-09-01T01:06:45;18.40;99.90
23991;DHT22;12205;50.600;4.608;2022-09-01T01:09:15;18.30;99.90
23991;DHT22;12205;50.600;4.608;2022-09-01T01:11:42;18.30;99.90
23991;DHT22;12205;50.600;4.608;2022-09-01T01:14:11;18.30;99.90
23991;DHT22;12205;50.600;4.608;2022-09-01T01:16:41;18.30;99.90
23991;DHT22;12205;50.600;4.608;2022-09-01T01:19:17;18.20;99.90
23991;DHT22;12205;50.600;4.608;2022-09-01T01:22:05;18.20;99.90
23991;DHT22;12205;50.600;4.608;2022-09-01T01:24:54;18.10;99.90
23991;DHT22;12205;50.600;4.608;2022-09-01T01:27:24;18.10;99.90
23991;DHT22;12205;50.600;4.608;2022-09-01T01:29:59;18.10;99.90
23991;DHT22;12205;50.600;4.608;2022-09-01T01:32:28;18.00;99.90
23991;DHT22;12205;50.600;4.608;2022-09-01T01:34:58;18.00;99.90
23991;DHT22;12205;50.600;4.608;2022-09-01T01:37:28;18.00;99.90
23991;DHT22;12205;50.600;4.608;2022-09-01T01:39:56;18.00;99.90
23991;DHT22;12205;50.600;4.608;2022-09-01T01:42:23;17.90;99.90
23991;DHT22;12205;50.600;4.608;2022-09-01T01:44:52;17.90;99.90
23991;DHT22;12205;50.600;4.608;2022-09-01T01:47:20;17.90;99.90
23991;DHT22;12205;50.600;4.608;2022-09-01T01:49:47;18.00;99.90
23991;DHT22;12205;50.600;4.608;2022-09-01T01:52:14;18.00;99.90
23991;DHT22;12205;50.600;4.608;2022-09-01T01:54:44;18.00;99.90
23991;DHT22;12205;50.600;4.608;2022-09-01T01:57:13;18.00;99.90
23991;DHT22;12205;50.600;4.608;2022-09-01T01:59:42;18.00;99.90
23991;DHT22;12205;50.600;4.608;2022-09-01T02:02:10;18.00;99.90
23991;DHT22;12205;50.600;4.608;2022-09-01T02:04:37;17.90;99.90
23991;DHT22;12205;50.600;4.608;2022-09-01T02:07:10;18.00;99.90
23991;DHT22;12205;50.600;4.608;2022-09-01T02:09:38;17.90;99.90
23991;DHT22;12205;50.600;4.608;2022-09-01T02:12:10;17.90;99.90
23991;DHT22;12205;50.600;4.608;2022-09-01T02:14:39;17.80;99.90
23991;DHT22;12205;50.600;4.608;2022-09-01T02:17:06;17.80;99.90
23991;DHT22;12205;50.600;4.608;2022-09-01T02:19:34;17.70;99.90
23991;DHT22;12205;50.600;4.608;2022-09-01T02:22:03;17.70;99.90
23991;DHT22;12205;50.600;4.608;2022-09-01T02:24:30;17.60;99.90
23991;DHT22;12205;50.600;4.608;2022-09-01T02:26:57;17.60;99.90
23991;DHT22;12205;50.600;4.608;2022-09-01T02:29:25;17.50;99.90
23991;DHT22;12205;50.600;4.608;2022-09-01T02:31:55;17.50;99.90
23991;DHT22;12205;50.600;4.608;2022-09-01T02:34:25;17.40;99.90
23991;DHT22;12205;50.600;4.608;2022-09-01T02:36:56;17.40;99.90
23991;DHT22;12205;50.600;4.608;2022-09-01T02:39:26;17.40;99.90
23991;DHT22;12205;50.600;4.608;2022-09-01T02:41:57;17.40;99.90
23991;DHT22;12205;50.600;4.608;2022-09-01T02:44:27;17.40;99.90
23991;DHT22;12205;50.600;4.608;2022-09-01T02:46:58;17.40;99.90
23991;DHT22;12205;50.600;4.608;2022-09-01T02:49:26;17.30;99.90
23991;DHT22;12205;50.600;4.608;2022-09-01T02:51:57;17.30;99.90
23991;DHT22;12205;50.600;4.608;2022-09-01T02:54:27;17.30;99.90
23991;DHT22;12205;50.600;4.608;2022-09-01T02:56:55;17.30;99.90
23991;DHT22;12205;50.600;4.608;2022-09-01T02:59:25;17.30;99.90
23991;DHT22;12205;50.600;4.608;2022-09-01T03:01:58;17.30;99.90
23991;DHT22;12205;50.600;4.608;2022-09-01T03:04:25;17.30;99.90
23991;DHT22;12205;50.600;4.608;2022-09-01T03:06:56;17.30;99.90
23991;DHT22;12205;50.600;4.608;2022-09-01T03:09:23;17.40;99.90
23991;DHT22;12205;50.600;4.608;2022-09-01T03:11:52;17.40;99.90
23991;DHT22;12205;50.600;4.608;2022-09-01T03:14:22;17.40;99.90
23991;DHT22;12205;50.600;4.608;2022-09-01T03:16:50;17.40;99.90
23991;DHT22;12205;50.600;4.608;2022-09-01T03:19:20;17.40;99.90
23991;DHT22;12205;50.600;4.608;2022-09-01T03:21:47;17.40;99.90
23991;DHT22;12205;50.600;4.608;2022-09-01T03:24:18;17.40;99.90
23991;DHT22;12205;50.600;4.608;2022-09-01T03:26:49;17.40;99.90
23991;DHT22;12205;50.600;4.608;2022-09-01T03:29:18;17.40;99.90
23991;DHT22;12205;50.600;4.608;2022-09-01T03:31:45;17.40;99.90
23991;DHT22;12205;50.600;4.608;2022-09-01T03:34:12;17.40;99.90
23991;DHT22;12205;50.600;4.608;2022-09-01T03:36:47;17.40;99.90
23991;DHT22;12205;50.600;4.608;2022-09-01T03:39:20;17.40;99.90
23991;DHT22;12205;50.600;4.608;2022-09-01T03:41:47;17.40;99.90
23991;DHT22;12205;50.600;4.608;2022-09-01T03:44:14;17.30;99.90
23991;DHT22;12205;50.600;4.608;2022-09-01T03:46:43;17.30;99.90
23991;DHT22;12205;50.600;4.608;2022-09-01T03:49:11;17.30;99.90
23991;DHT22;12205;50.600;4.608;2022-09-01T03:51:41;17.30;99.90
23991;DHT22;12205;50.600;4.608;2022-09-01T03:54:11;17.30;99.90
23991;DHT22;12205;50.600;4.608;2022-09-01T03:56:38;17.20;99.90
23991;DHT22;12205;50.600;4.608;2022-09-01T03:59:07;17.20;99.90
23991;DHT22;12205;50.600;4.608;2022-09-01T04:01:42;17.20;99.90
23991;DHT22;12205;50.600;4.608;2022-09-01T04:04:11;17.20;99.90
23991;DHT22;12205;50.600;4.608;2022-09-01T04:06:40;17.10;99.90
23991;DHT22;12205;50.600;4.608;2022-09-01T04:09:07;17.10;99.90
23991;DHT22;12205;50.600;4.608;2022-09-01T04:11:38;17.00;99.90
23991;DHT22;12205;50.600;4.608;2022-09-01T04:14:05;16.90;99.90
23991;DHT22;12205;50.600;4.608;2022-09-01T04:16:36;16.90;99.90
23991;DHT22;12205;50.600;4.608;2022-09-01T04:19:22;16.80;99.90
23991;DHT22;12205;50.600;4.608;2022-09-01T04:21:53;16.80;99.90
23991;DHT22;12205;50.600;4.608;2022-09-01T04:24:26;16.70;99.90
23991;DHT22;12205;50.600;4.608;2022-09-01T04:26:59;16.50;99.90
23991;DHT22;12205;50.600;4.608;2022-09-01T04:29:29;16.50;99.90
23991;DHT22;12205;50.600;4.608;2022-09-01T04:32:00;16.40;99.90
23991;DHT22;12205;50.600;4.608;2022-09-01T04:34:31;16.30;99.90
23991;DHT22;12205;50.600;4.608;2022-09-01T04:37:05;16.30;99.90
23991;DHT22;12205;50.600;4.608;2022-09-01T04:39:38;16.20;99.90
23991;DHT22;12205;50.600;4.608;2022-09-01T04:42:14;16.20;99.90
23991;DHT22;12205;50.600;4.608;2022-09-01T04:44:43;16.10;99.90
23991;DHT22;12205;50.600;4.608;2022-09-01T04:47:11;16.10;99.90
23991;DHT22;12205;50.600;4.608;2022-09-01T04:49:40;16.10;99.90
23991;DHT22;12205;50.600;4.608;2022-09-01T04:52:08;16.00;99.90
23991;DHT22;12205;50.600;4.608;2022-09-01T04:54:36;16.00;99.90
23991;DHT22;12205;50.600;4.608;2022-09-01T04:57:05;16.00;99.90
23991;DHT22;12205;50.600;4.608;2022-09-01T04:59:37;15.90;99.90
23991;DHT22;12205;50.600;4.608;2022-09-01T05:02:04;15.90;99.90
23991;DHT22;12205;50.600;4.608;2022-09-01T05:04:34;15.80;99.90
23991;DHT22;12205;50.600;4.608;2022-09-01T05:07:03;15.80;99.90
23991;DHT22;12205;50.600;4.608;2022-09-01T05:09:37;15.70;99.90
23991;DHT22;12205;50.600;4.608;2022-09-01T05:12:24;15.70;99.90
23991;DHT22;12205;50.600;4.608;2022-09-01T05:14:54;15.60;99.90
23991;DHT22;12205;50.600;4.608;2022-09-01T05:17:22;15.60;99.90
23991;DHT22;12205;50.600;4.608;2022-09-01T05:19:51;15.60;99.90
23991;DHT22;12205;50.600;4.608;2022-09-01T05:22:21;15.50;99.90
23991;DHT22;12205;50.600;4.608;2022-09-01T05:24:55;15.50;99.90
23991;DHT22;12205;50.600;4.608;2022-09-01T05:27:28;15.50;99.90
23991;DHT22;12205;50.600;4.608;2022-09-01T05:29:57;15.50;99.90
23991;DHT22;12205;50.600;4.608;2022-09-01T05:32:25;15.50;99.90
23991;DHT22;12205;50.600;4.608;2022-09-01T05:34:53;15.50;99.90
23991;DHT22;12205;50.600;4.608;2022-09-01T05:37:21;15.50;99.90
23991;DHT22;12205;50.600;4.608;2022-09-01T05:39:48;15.50;99.90
23991;DHT22;12205;50.600;4.608;2022-09-01T05:42:17;15.50;99.90
23991;DHT22;12205;50.600;4.608;2022-09-01T05:44:44;15.40;99.90
23991;DHT22;12205;50.600;4.608;2022-09-01T05:47:15;15.40;99.90
23991;DHT22;12205;50.600;4.608;2022-09-01T05:49:43;15.50;99.90
23991;DHT22;12205;50.600;4.608;2022-09-01T05:52:10;15.40;99.90
23991;DHT22;12205;50.600;4.608;2022-09-01T05:54:40;15.50;99.90
23991;DHT22;12205;50.600;4.608;2022-09-01T05:57:07;15.50;99.90
23991;DHT22;12205;50.600;4.608;2022-09-01T05:59:35;15.50;99.90
23991;DHT22;12205;50.600;4.608;2022-09-01T06:02:10;15.50;99.90
23991;DHT22;12205;50.600;4.608;2022-09-01T06:04:39;15.60;99.90
23991;DHT22;12205;50.600;4.608;2022-09-01T06:07:13;15.60;99.90
23991;DHT22;12205;50.600;4.608;2022-09-01T06:09:49;15.60;99.90
23991;DHT22;12205;50.600;4.608;2022-09-01T06:12:20;15.70;99.90
23991;DHT22;12205;50.600;4.608;2022-09-01T06:14:50;15.70;99.90
23991;DHT22;12205;50.600;4.608;2022-09-01T06:17:21;15.80;99.90
23991;DHT22;12205;50.600;4.608;2022-09-01T06:19:52;15.80;99.90
23991;DHT22;12205;50.600;4.608;2022-09-01T06:22:21;15.80;99.90
23991;DHT22;12205;50.600;4.608;2022-09-01T06:24:50;15.90;99.90
23991;DHT22;12205;50.600;4.608;2022-09-01T06:27:20;15.90;99.90
23991;DHT22;12205;50.600;4.608;2022-09-01T06:29:48;16.00;99.90
23991;DHT22;12205;50.600;4.608;2022-09-01T06:32:18;16.10;99.90
23991;DHT22;12205;50.600;4.608;2022-09-01T06:34:46;16.10;99.90
23991;DHT22;12205;50.600;4.608;2022-09-01T06:37:17;16.20;99.90
23991;DHT22;12205;50.600;4.608;2022-09-01T06:39:50;16.20;99.90
23991;DHT22;12205;50.600;4.608;2022-09-01T06:42:18;16.30;99.90
23991;DHT22;12205;50.600;4.608;2022-09-01T06:44:55;16.30;99.90
23991;DHT22;12205;50.600;4.608;2022-09-01T06:47:22;16.40;99.90
23991;DHT22;12205;50.600;4.608;2022-09-01T06:49:53;16.50;99.90
23991;DHT22;12205;50.600;4.608;2022-09-01T06:52:26;16.50;99.90
23991;DHT22;12205;50.600;4.608;2022-09-01T06:54:54;16.60;99.90
23991;DHT22;12205;50.600;4.608;2022-09-01T06:57:22;16.70;99.90
23991;DHT22;12205;50.600;4.608;2022-09-01T06:59:51;16.80;99.90
23991;DHT22;12205;50.600;4.608;2022-09-01T07:02:19;16.90;99.90
23991;DHT22;12205;50.600;4.608;2022-09-01T07:05:06;17.00;99.90
23991;DHT22;12205;50.600;4.608;2022-09-01T07:07:35;17.10;99.90
23991;DHT22;12205;50.600;4.608;2022-09-01T07:10:26;17.20;99.90
23991;DHT22;12205;50.600;4.608;2022-09-01T07:13:04;17.30;99.90
23991;DHT22;12205;50.600;4.608;2022-09-01T07:15:36;17.40;99.90
23991;DHT22;12205;50.600;4.608;2022-09-01T07:18:05;17.50;99.90
23991;DHT22;12205;50.600;4.608;2022-09-01T07:20:32;17.60;99.90
23991;DHT22;12205;50.600;4.608;2022-09-01T07:23:05;17.70;99.90
23991;DHT22;12205;50.600;4.608;2022-09-01T07:25:37;17.80;99.90
23991;DHT22;12205;50.600;4.608;2022-09-01T07:28:11;17.90;99.90
23991;DHT22;12205;50.600;4.608;2022-09-01T07:30:41;18.00;99.90
23991;DHT22;12205;50.600;4.608;2022-09-01T07:33:10;18.10;99.90
23991;DHT22;12205;50.600;4.608;2022-09-01T07:35:40;18.20;99.90
23991;DHT22;12205;50.600;4.608;2022-09-01T07:38:10;18.30;99.90
23991;DHT22;12205;50.600;4.608;2022-09-01T07:40:40;18.40;99.90
23991;DHT22;12205;50.600;4.608;2022-09-01T07:43:26;18.50;99.90
23991;DHT22;12205;50.600;4.608;2022-09-01T07:46:14;18.70;99.90
23991;DHT22;12205;50.600;4.608;2022-09-01T07:48:41;18.80;99.90
23991;DHT22;12205;50.600;4.608;2022-09-01T07:51:11;18.90;99.90
23991;DHT22;12205;50.600;4.608;2022-09-01T07:53:46;19.00;99.90
23991;DHT22;12205;50.600;4.608;2022-09-01T07:56:15;19.10;99.90
23991;DHT22;12205;50.600;4.608;2022-09-01T07:58:48;19.10;99.90
23991;DHT22;12205;50.600;4.608;2022-09-01T08:01:19;19.20;99.90
23991;DHT22;12205;50.600;4.608;2022-09-01T08:03:49;19.30;99.90
23991;DHT22;12205;50.600;4.608;2022-09-01T08:06:21;19.40;99.90
23991;DHT22;12205;50.600;4.608;2022-09-01T08:08:53;19.50;99.90
23991;DHT22;12205;50.600;4.608;2022-09-01T08:11:24;19.60;99.90
23991;DHT22;12205;50.600;4.608;2022-09-01T08:13:54;19.70;99.90
23991;DHT22;12205;50.600;4.608;2022-09-01T08:16:24;19.70;99.90
23991;DHT22;12205;50.600;4.608;2022-09-01T08:18:53;19.80;99.90
23991;DHT22;12205;50.600;4.608;2022-09-01T08:21:26;19.90;99.90
23991;DHT22;12205;50.600;4.608;2022-09-01T08:24:02;20.00;99.90
23991;DHT22;12205;50.600;4.608;2022-09-01T08:26:32;20.10;99.90
23991;DHT22;12205;50.600;4.608;2022-09-01T08:29:01;20.10;99.90
23991;DHT22;12205;50.600;4.608;2022-09-01T08:31:34;20.20;99.90
23991;DHT22;12205;50.600;4.608;2022-09-01T08:34:02;20.30;99.90
23991;DHT22;12205;50.600;4.608;2022-09-01T08:36:31;20.40;99.90
23991;DHT22;12205;50.600;4.608;2022-09-01T08:39:01;20.50;99.90
23991;DHT22;12205;50.600;4.608;2022-09-01T08:41:40;20.60;99.90
23991;DHT22;12205;50.600;4.608;2022-09-01T08:44:15;20.60;99.90
23991;DHT22;12205;50.600;4.608;2022-09-01T08:46:52;20.80;99.90
23991;DHT22;12205;50.600;4.608;2022-09-01T08:49:24;20.90;99.90
23991;DHT22;12205;50.600;4.608;2022-09-01T08:52:21;21.00;99.90
23991;DHT22;12205;50.600;4.608;2022-09-01T08:55:00;21.10;99.90
23991;DHT22;12205;50.600;4.608;2022-09-01T08:57:33;21.20;99.90
23991;DHT22;12205;50.600;4.608;2022-09-01T09:00:20;21.30;99.90
23991;DHT22;12205;50.600;4.608;2022-09-01T09:02:56;21.40;99.90
23991;DHT22;12205;50.600;4.608;2022-09-01T09:05:50;21.50;99.90
23991;DHT22;12205;50.600;4.608;2022-09-01T09:08:55;21.60;99.90
23991;DHT22;12205;50.600;4.608;2022-09-01T09:11:44;21.70;99.90
23991;DHT22;12205;50.600;4.608;2022-09-01T09:14:33;21.80;99.90
23991;DHT22;12205;50.600;4.608;2022-09-01T09:17:08;22.00;99.90
23991;DHT22;12205;50.600;4.608;2022-09-01T09:19:37;22.10;99.90
23991;DHT22;12205;50.600;4.608;2022-09-01T09:22:07;22.20;99.90
23991;DHT22;12205;50.600;4.608;2022-09-01T09:24:43;22.30;99.90
23991;DHT22;12205;50.600;4.608;2022-09-01T09:27:21;22.40;99.90
23991;DHT22;12205;50.600;4.608;2022-09-01T09:29:51;22.40;99.90
23991;DHT22;12205;50.600;4.608;2022-09-01T09:32:21;22.60;99.90
23991;DHT22;12205;50.600;4.608;2022-09-01T09:34:50;22.60;99.90
23991;DHT22;12205;50.600;4.608;2022-09-01T09:37:26;22.80;99.90
23991;DHT22;12205;50.600;4.608;2022-09-01T09:40:06;22.90;99.90
23991;DHT22;12205;50.600;4.608;2022-09-01T09:42:39;23.00;99.90
23991;DHT22;12205;50.600;4.608;2022-09-01T09:45:21;23.00;99.90
23991;DHT22;12205;50.600;4.608;2022-09-01T09:47:52;23.10;99.90
23991;DHT22;12205;50.600;4.608;2022-09-01T09:50:23;23.30;99.90
23991;DHT22;12205;50.600;4.608;2022-09-01T09:53:10;23.30;99.90
23991;DHT22;12205;50.600;4.608;2022-09-01T09:55:58;23.40;99.90
23991;DHT22;12205;50.600;4.608;2022-09-01T09:58:34;23.50;99.90
23991;DHT22;12205;50.600;4.608;2022-09-01T10:01:07;23.60;99.90
23991;DHT22;12205;50.600;4.608;2022-09-01T10:03:42;23.70;99.90
23991;DHT22;12205;50.600;4.608;2022-09-01T10:06:28;23.70;99.90
23991;DHT22;12205;50.600;4.608;2022-09-01T10:08:59;23.90;99.90
23991;DHT22;12205;50.600;4.608;2022-09-01T10:11:30;24.00;99.90
23991;DHT22;12205;50.600;4.608;2022-09-01T10:14:05;24.10;99.90
23991;DHT22;12205;50.600;4.608;2022-09-01T10:16:33;24.20;99.90
23991;DHT22;12205;50.600;4.608;2022-09-01T10:19:06;24.20;99.90
23991;DHT22;12205;50.600;4.608;2022-09-01T10:21:40;24.30;99.90
23991;DHT22;12205;50.600;4.608;2022-09-01T10:24:17;24.40;99.90
23991;DHT22;12205;50.600;4.608;2022-09-01T10:26:50;24.50;99.90
23991;DHT22;12205;50.600;4.608;2022-09-01T10:29:23;24.50;99.90
23991;DHT22;12205;50.600;4.608;2022-09-01T10:31:53;24.60;99.90
23991;DHT22;12205;50.600;4.608;2022-09-01T10:34:22;24.60;99.90
23991;DHT22;12205;50.600;4.608;2022-09-01T10:36:50;24.70;99.90
23991;DHT22;12205;50.600;4.608;2022-09-01T10:39:18;24.80;99.90
23991;DHT22;12205;50.600;4.608;2022-09-01T10:41:50;24.80;99.90
23991;DHT22;12205;50.600;4.608;2022-09-01T10:44:25;24.90;99.90
23991;DHT22;12205;50.600;4.608;2022-09-01T10:47:02;25.00;99.90
23991;DHT22;12205;50.600;4.608;2022-09-01T10:49:56;25.00;99.90
23991;DHT22;12205;50.600;4.608;2022-09-01T10:52:53;25.20;99.90
23991;DHT22;12205;50.600;4.608;2022-09-01T10:55:27;25.20;99.90
23991;DHT22;12205;50.600;4.608;2022-09-01T10:58:11;25.30;99.90
23991;DHT22;12205;50.600;4.608;2022-09-01T11:00:50;25.50;99.90
23991;DHT22;12205;50.600;4.608;2022-09-01T11:06:56;25.70;99.90
23991;DHT22;12205;50.600;4.608;2022-09-01T11:09:29;25.80;99.90
23991;DHT22;12205;50.600;4.608;2022-09-01T11:12:24;25.90;99.90
23991;DHT22;12205;50.600;4.608;2022-09-01T11:14:59;26.00;99.40
23991;DHT22;12205;50.600;4.608;2022-09-01T11:17:30;26.10;99.70
23991;DHT22;12205;50.600;4.608;2022-09-01T11:20:04;26.10;98.50
23991;DHT22;12205;50.600;4.608;2022-09-01T11:22:36;26.20;98.60
23991;DHT22;12205;50.600;4.608;2022-09-01T11:25:32;26.20;97.30
23991;DHT22;12205;50.600;4.608;2022-09-01T11:28:36;26.40;97.60
23991;DHT22;12205;50.600;4.608;2022-09-01T11:31:30;26.50;96.50
23991;DHT22;12205;50.600;4.608;2022-09-01T11:34:12;26.50;96.30
23991;DHT22;12205;50.600;4.608;2022-09-01T11:36:56;26.70;96.20
23991;DHT22;12205;50.600;4.608;2022-09-01T11:39:38;26.80;95.10
23991;DHT22;12205;50.600;4.608;2022-09-01T11:42:11;27.00;95.00
23991;DHT22;12205;50.600;4.608;2022-09-01T11:44:48;27.10;94.60
23991;DHT22;12205;50.600;4.608;2022-09-01T11:47:24;27.30;95.00
23991;DHT22;12205;50.600;4.608;2022-09-01T11:50:00;27.50;93.50
23991;DHT22;12205;50.600;4.608;2022-09-01T11:52:33;27.60;93.10
23991;DHT22;12205;50.600;4.608;2022-09-01T11:55:04;27.70;92.00
23991;DHT22;12205;50.600;4.608;2022-09-01T11:57:34;27.90;92.50
23991;DHT22;12205;50.600;4.608;2022-09-01T12:00:05;28.00;91.50
23991;DHT22;12205;50.600;4.608;2022-09-01T12:02:43;28.20;90.90
23991;DHT22;12205;50.600;4.608;2022-09-01T12:05:27;28.40;89.60
23991;DHT22;12205;50.600;4.608;2022-09-01T12:07:57;28.60;87.70
23991;DHT22;12205;50.600;4.608;2022-09-01T12:10:30;28.90;87.30
23991;DHT22;12205;50.600;4.608;2022-09-01T12:13:02;29.10;85.40
23991;DHT22;12205;50.600;4.608;2022-09-01T12:15:31;29.50;83.10
23991;DHT22;12205;50.600;4.608;2022-09-01T12:18:13;30.00;81.50
23991;DHT22;12205;50.600;4.608;2022-09-01T12:20:45;30.70;79.80
23991;DHT22;12205;50.600;4.608;2022-09-01T12:23:15;31.50;75.20
23991;DHT22;12205;50.600;4.608;2022-09-01T12:25:49;32.20;72.40
23991;DHT22;12205;50.600;4.608;2022-09-01T12:28:17;32.80;68.80
23991;DHT22;12205;50.600;4.608;2022-09-01T12:30:44;33.50;65.40
23991;DHT22;12205;50.600;4.608;2022-09-01T12:33:11;34.10;62.30
23991;DHT22;12205;50.600;4.608;2022-09-01T12:35:39;34.20;60.90
23991;DHT22;12205;50.600;4.608;2022-09-01T12:38:27;34.60;59.00
23991;DHT22;12205;50.600;4.608;2022-09-01T12:40:56;34.80;57.20
23991;DHT22;12205;50.600;4.608;2022-09-01T12:43:33;34.90;56.10
23991;DHT22;12205;50.600;4.608;2022-09-01T12:46:01;35.30;54.90
23991;DHT22;12205;50.600;4.608;2022-09-01T12:48:31;35.70;53.80
23991;DHT22;12205;50.600;4.608;2022-09-01T12:51:02;36.50;52.10
23991;DHT22;12205;50.600;4.608;2022-09-01T12:53:35;36.90;50.70
23991;DHT22;12205;50.600;4.608;2022-09-01T12:56:16;37.40;49.80
23991;DHT22;12205;50.600;4.608;2022-09-01T12:58:50;37.50;48.30
23991;DHT22;12205;50.600;4.608;2022-09-01T13:01:32;37.70;47.70
23991;DHT22;12205;50.600;4.608;2022-09-01T13:04:10;38.00;46.60
23991;DHT22;12205;50.600;4.608;2022-09-01T13:06:49;38.50;46.40
23991;DHT22;12205;50.600;4.608;2022-09-01T13:09:18;38.80;45.20
23991;DHT22;12205;50.600;4.608;2022-09-01T13:11:46;38.90;44.10
23991;DHT22;12205;50.600;4.608;2022-09-01T13:14:14;39.00;44.40
23991;DHT22;12205;50.600;4.608;2022-09-01T13:16:42;39.40;43.70
23991;DHT22;12205;50.600;4.608;2022-09-01T13:19:09;39.50;42.80
23991;DHT22;12205;50.600;4.608;2022-09-01T13:21:36;39.00;43.10
23991;DHT22;12205;50.600;4.608;2022-09-01T13:24:05;39.60;42.70
23991;DHT22;12205;50.600;4.608;2022-09-01T13:26:34;40.00;41.80
23991;DHT22;12205;50.600;4.608;2022-09-01T13:29:01;40.60;41.50
23991;DHT22;12205;50.600;4.608;2022-09-01T13:31:29;40.90;40.00
23991;DHT22;12205;50.600;4.608;2022-09-01T13:33:57;41.00;39.20
23991;DHT22;12205;50.600;4.608;2022-09-01T13:36:25;41.20;39.20
23991;DHT22;12205;50.600;4.608;2022-09-01T13:38:52;41.30;38.60
23991;DHT22;12205;50.600;4.608;2022-09-01T13:41:19;41.50;38.10
23991;DHT22;12205;50.600;4.608;2022-09-01T13:43:47;41.60;37.90
23991;DHT22;12205;50.600;4.608;2022-09-01T13:46:14;41.60;37.10
23991;DHT22;12205;50.600;4.608;2022-09-01T13:48:41;41.60;36.70
23991;DHT22;12205;50.600;4.608;2022-09-01T13:51:09;41.80;36.30
23991;DHT22;12205;50.600;4.608;2022-09-01T13:53:37;41.70;36.20
23991;DHT22;12205;50.600;4.608;2022-09-01T13:56:04;41.10;36.20
23991;DHT22;12205;50.600;4.608;2022-09-01T13:58:32;41.40;36.90
23991;DHT22;12205;50.600;4.608;2022-09-01T14:01:00;41.60;35.90
23991;DHT22;12205;50.600;4.608;2022-09-01T14:03:27;41.00;35.90
23991;DHT22;12205;50.600;4.608;2022-09-01T14:05:56;40.50;36.10
23991;DHT22;12205;50.600;4.608;2022-09-01T14:08:23;40.10;36.40
23991;DHT22;12205;50.600;4.608;2022-09-01T14:10:52;40.30;36.10
23991;DHT22;12205;50.600;4.608;2022-09-01T14:13:23;40.30;35.70
23991;DHT22;12205;50.600;4.608;2022-09-01T14:15:52;40.60;35.90
23991;DHT22;12205;50.600;4.608;2022-09-01T14:18:21;40.90;35.90
23991;DHT22;12205;50.600;4.608;2022-09-01T14:20:50;41.70;35.50
23991;DHT22;12205;50.600;4.608;2022-09-01T14:23:18;42.00;35.10
23991;DHT22;12205;50.600;4.608;2022-09-01T14:25:48;42.10;34.20
23991;DHT22;12205;50.600;4.608;2022-09-01T14:28:18;42.10;33.90
23991;DHT22;12205;50.600;4.608;2022-09-01T14:30:47;42.20;34.00
23991;DHT22;12205;50.600;4.608;2022-09-01T14:33:15;42.60;34.00
23991;DHT22;12205;50.600;4.608;2022-09-01T14:35:46;42.50;33.50
23991;DHT22;12205;50.600;4.608;2022-09-01T14:38:14;42.30;34.20
23991;DHT22;12205;50.600;4.608;2022-09-01T14:40:42;42.60;33.30
23991;DHT22;12205;50.600;4.608;2022-09-01T14:43:12;42.60;33.10
23991;DHT22;12205;50.600;4.608;2022-09-01T14:45:40;42.60;32.80
23991;DHT22;12205;50.600;4.608;2022-09-01T14:48:10;42.80;32.70
23991;DHT22;12205;50.600;4.608;2022-09-01T14:50:39;42.70;32.50
23991;DHT22;12205;50.600;4.608;2022-09-01T14:53:10;42.70;32.60
23991;DHT22;12205;50.600;4.608;2022-09-01T14:55:37;42.60;32.60
23991;DHT22;12205;50.600;4.608;2022-09-01T14:58:05;42.90;32.30
23991;DHT22;12205;50.600;4.608;2022-09-01T15:00:33;42.90;32.20
23991;DHT22;12205;50.600;4.608;2022-09-01T15:03:01;42.90;32.30
23991;DHT22;12205;50.600;4.608;2022-09-01T15:05:28;42.50;32.00
23991;DHT22;12205;50.600;4.608;2022-09-01T15:07:55;42.00;32.40
23991;DHT22;12205;50.600;4.608;2022-09-01T15:10:25;41.90;32.50
23991;DHT22;12205;50.600;4.608;2022-09-01T15:12:54;41.80;33.00
23991;DHT22;12205;50.600;4.608;2022-09-01T15:15:22;41.90;32.70
23991;DHT22;12205;50.600;4.608;2022-09-01T15:17:50;42.20;32.40
23991;DHT22;12205;50.600;4.608;2022-09-01T15:20:17;42.20;32.30
23991;DHT22;12205;50.600;4.608;2022-09-01T15:23:02;42.10;32.30
23991;DHT22;12205;50.600;4.608;2022-09-01T15:25:33;42.00;32.10
23991;DHT22;12205;50.600;4.608;2022-09-01T15:28:00;41.80;31.90
23991;DHT22;12205;50.600;4.608;2022-09-01T15:30:28;41.90;31.90
23991;DHT22;12205;50.600;4.608;2022-09-01T15:32:55;41.90;32.20
23991;DHT22;12205;50.600;4.608;2022-09-01T15:35:23;41.60;31.80
23991;DHT22;12205;50.600;4.608;2022-09-01T15:37:52;41.70;32.20
23991;DHT22;12205;50.600;4.608;2022-09-01T15:40:22;41.60;32.40
23991;DHT22;12205;50.600;4.608;2022-09-01T15:42:52;41.70;32.40
23991;DHT22;12205;50.600;4.608;2022-09-01T15:45:22;41.60;32.50
23991;DHT22;12205;50.600;4.608;2022-09-01T15:47:50;41.40;32.80
23991;DHT22;12205;50.600;4.608;2022-09-01T15:50:20;41.30;32.30
23991;DHT22;12205;50.600;4.608;2022-09-01T15:52:50;41.00;32.30
23991;DHT22;12205;50.600;4.608;2022-09-01T15:55:21;40.40;32.80
23991;DHT22;12205;50.600;4.608;2022-09-01T15:57:52;40.30;33.10
23991;DHT22;12205;50.600;4.608;2022-09-01T16:00:21;40.40;33.40
23991;DHT22;12205;50.600;4.608;2022-09-01T16:02:49;40.40;33.60